sensor_id;sensor_type;location;lat;lon;timestamp;temperature;humidity
14016;DHT22;7083;48.854;9.158;2023-06-01T00:02:23;11.70;93.60
14016;DHT22;7083;48.854;9.158;2023-06-01T00:04:50;11.70;93.70
14016;DHT22;7083;48.854;9.158;2023-06-01T00:07:17;11.70;94.50
14016;DHT22;7083;48.854;9.158;2023-06-01T00:09:45;11.80;94.90
14016;DHT22;7083;48.854;9.158;2023-06-01T00:12:12;11.80;95.50
14016;DHT22;7083;48.854;9.158;2023-06-01T00:14:39;11.80;95.60
14016;DHT22;7083;48.854;9.158;2023-06-01T00:17:05;11.80;96.60
14016;DHT22;7083;48.854;9.158;2023-06-01T00:19:33;11.80;96.70
14016;DHT22;7083;48.854;9.158;2023-06-01T00:22:01;11.70;96.80
14016;DHT22;7083;48.854;9.158;2023-06-01T00:24:27;11.70;97.40
14016;DHT22;7083;48.854;9.158;2023-06-01T00:26:55;11.70;97.70
14016;DHT22;7083;48.854;9.158;2023-06-01T00:29:22;11.70;98.00
14016;DHT22;7083;48.854;9.158;2023-06-01T00:31:49;11.60;98.80
14016;DHT22;7083;48.854;9.158;2023-06-01T00:34:15;11.60;99.00
14016;DHT22;7083;48.854;9.158;2023-06-01T00:36:42;11.60;99.90
14016;DHT22;7083;48.854;9.158;2023-06-01T00:39:09;11.60;99.90
14016;DHT22;7083;48.854;9.158;2023-06-01T00:41:35;11.50;99.90
14016;DHT22;7083;48.854;9.158;2023-06-01T00:44:03;11.50;99.90
14016;DHT22;7083;48.854;9.158;2023-06-01T00:46:31;11.50;99.90
14016;DHT22;7083;48.854;9.158;2023-06-01T00:48:58;11.40;99.90
14016;DHT22;7083;48.854;9.158;2023-06-01T00:51:25;11.40;99.90
14016;DHT22;7083;48.854;9.158;2023-06-01T00:53:52;11.40;99.90
14016;DHT22;7083;48.854;9.158;2023-06-01T00:56:19;11.40;99.90
14016;DHT22;7083;48.854;9.158;2023-06-01T00:58:46;11.40;99.90
14016;DHT22;7083;48.854;9.158;2023-06-01T01:01:14;11.40;99.90
14016;DHT22;7083;48.854;9.158;2023-06-01T01:03:46;11.40;99.90
14016;DHT22;7083;48.854;9.158;2023-06-01T01:06:20;11.40;99.90
14016;DHT22;7083;48.854;9.158;2023-06-01T01:08:59;11.50;99.90
14016;DHT22;7083;48.854;9.158;2023-06-01T01:11:33;11.50;99.90
14016;DHT22;7083;48.854;9.158;2023-06-01T01:14:05;11.60;99.90
14016;DHT22;7083;48.854;9.158;2023-06-01T01:16:41;11.60;99.90
14016;DHT22;7083;48.854;9.158;2023-06-01T01:19:21;11.60;99.90
14016;DHT22;7083;48.854;9.158;2023-06-01T01:22:01;11.60;99.90
14016;DHT22;7083;48.854;9.158;2023-06-01T01:24:43;11.60;99.90
14016;DHT22;7083;48.854;9.158;2023-06-01T01:27:21;11.60;99.90
14016;DHT22;7083;48.854;9.158;2023-06-01T01:29:52;11.50;99.90
14016;DHT22;7083;48.854;9.158;2023-06-01T01:32:23;11.40;99.90
14016;DHT22;7083;48.854;9.158;2023-06-01T01:34:51;11.30;99.90
14016;DHT22;7083;48.854;9.158;2023-06-01T01:37:21;11.20;99.90
14016;DHT22;7083;48.854;9.158;2023-06-01T01:39:48;11.20;99.90
14016;DHT22;7083;48.854;9.158;2023-06-01T01:42:15;11.10;99.90
14016;DHT22;7083;48.854;9.158;2023-06-01T01:44:41;11.10;99.90
14016;DHT22;7083;48.854;9.158;2023-06-01T01:47:17;11.00;99.90
14016;DHT22;7083;48.854;9.158;2023-06-01T01:49:48;11.00;99.90
14016;DHT22;7083;48.854;9.158;2023-06-01T01:52:18;10.90;99.90
14016;DHT22;7083;48.854;9.158;2023-06-01T01:54:49;10.90;99.90
14016;DHT22;7083;48.854;9.158;2023-06-01T01:57:17;10.80;99.90
14016;DHT22;7083;48.854;9.158;2023-06-01T01:59:45;10.80;99.90
14016;DHT22;7083;48.854;9.158;2023-06-01T02:02:13;10.70;99.90
14016;DHT22;7083;48.854;9.158;2023-06-01T02:04:41;10.70;99.90
14016;DHT22;7083;48.854;9.158;2023-06-01T02:07:08;10.70;99.90
14016;DHT22;7083;48.854;9.158;2023-06-01T02:09:35;10.60;99.90
14016;DHT22;7083;48.854;9.158;2023-06-01T02:12:02;10.60;99.90
14016;DHT22;7083;48.854;9.158;2023-06-01T02:14:29;10.60;99.90
14016;DHT22;7083;48.854;9.158;2023-06-01T02:16:56;10.60;99.90
14016;DHT22;7083;48.854;9.158;2023-06-01T02:19:24;10.50;99.90
14016;DHT22;7083;48.854;9.158;2023-06-01T02:21:51;10.50;99.90
14016;DHT22;7083;48.854;9.158;2023-06-01T02:24:17;10.50;99.90
14016;DHT22;7083;48.854;9.158;2023-06-01T02:26:46;10.40;99.90
14016;DHT22;7083;48.854;9.158;2023-06-01T02:29:14;10.40;99.90
14016;DHT22;7083;48.854;9.158;2023-06-01T02:31:41;10.40;99.90
14016;DHT22;7083;48.854;9.158;2023-06-01T02:34:07;10.30;99.90
14016;DHT22;7083;48.854;9.158;2023-06-01T02:36:35;10.30;99.90
14016;DHT22;7083;48.854;9.158;2023-06-01T02:39:02;10.30;99.90
14016;DHT22;7083;48.854;9.158;2023-06-01T02:41:29;10.30;99.90
14016;DHT22;7083;48.854;9.158;2023-06-01T02:43:56;10.20;99.90
14016;DHT22;7083;48.854;9.158;2023-06-01T02:46:22;10.20;99.90
14016;DHT22;7083;48.854;9.158;2023-06-01T02:48:49;10.20;99.90
14016;DHT22;7083;48.854;9.158;2023-06-01T02:51:16;10.20;99.90
14016;DHT22;7083;48.854;9.158;2023-06-01T02:53:45;10.20;99.90
14016;DHT22;7083;48.854;9.158;2023-06-01T02:56:12;10.20;99.90
14016;DHT22;7083;48.854;9.158;2023-06-01T02:58:39;10.20;99.90
14016;DHT22;7083;48.854;9.158;2023-06-01T03:01:07;10.10;99.90
14016;DHT22;7083;48.854;9.158;2023-06-01T03:03:37;10.10;99.90
14016;DHT22;7083;48.854;9.158;2023-06-01T03:06:03;10.10;99.90
14016;DHT22;7083;48.854;9.158;2023-06-01T03:08:31;10.10;99.90
14016;DHT22;7083;48.854;9.158;2023-06-01T03:11:01;10.00;99.90
14016;DHT22;7083;48.854;9.158;2023-06-01T03:13:27;10.00;99.90
14016;DHT22;7083;48.854;9.158;2023-06-01T03:15:54;10.00;99.90
14016;DHT22;7083;48.854;9.158;2023-06-01T03:18:21;10.00;99.90
14016;DHT22;7083;48.854;9.158;2023-06-01T03:20:47;10.00;99.90
14016;DHT22;7083;48.854;9.158;2023-06-01T03:23:14;10.00;99.90
14016;DHT22;7083;48.854;9.158;2023-06-01T03:25:41;10.00;99.90
14016;DHT22;7083;48.854;9.158;2023-06-01T03:28:09;10.00;99.90
14016;DHT22;7083;48.854;9.158;2023-06-01T03:30:36;10.00;99.90
14016;DHT22;7083;48.854;9.158;2023-06-01T03:33:02;10.00;99.90
14016;DHT22;7083;48.854;9.158;2023-06-01T03:35:29;10.00;99.90
14016;DHT22;7083;48.854;9.158;2023-06-01T03:37:56;10.00;99.90
14016;DHT22;7083;48.854;9.158;2023-06-01T03:40:22;10.00;99.90
14016;DHT22;7083;48.854;9.158;2023-06-01T03:42:49;10.00;99.90
14016;DHT22;7083;48.854;9.158;2023-06-01T03:45:17;10.00;99.90
14016;DHT22;7083;48.854;9.158;2023-06-01T03:47:44;10.00;99.90
14016;DHT22;7083;48.854;9.158;2023-06-01T03:50:11;10.00;99.90
14016;DHT22;7083;48.854;9.158;2023-06-01T03:52:38;10.00;99.90
14016;DHT22;7083;48.854;9.158;2023-06-01T03:55:06;10.00;99.90
14016;DHT22;7083;48.854;9.158;2023-06-01T03:57:35;10.00;99.90
14016;DHT22;7083;48.854;9.158;2023-06-01T04:00:02;10.10;99.90
14016;DHT22;7083;48.854;9.158;2023-06-01T04:02:47;10.10;99.90
14016;DHT22;7083;48.854;9.158;2023-06-01T04:05:15;10.10;99.90
14016;DHT22;7083;48.854;9.158;2023-06-01T04:07:43;10.10;99.90
14016;DHT22;7083;48.854;9.158;2023-06-01T04:10:11;10.10;99.90
14016;DHT22;7083;48.854;9.158;2023-06-01T04:12:39;10.20;99.90
14016;DHT22;7083;48.854;9.158;2023-06-01T04:15:07;10.20;99.90
14016;DHT22;7083;48.854;9.158;2023-06-01T04:17:35;10.20;99.90
14016;DHT22;7083;48.854;9.158;2023-06-01T04:20:05;10.30;99.90
14016;DHT22;7083;48.854;9.158;2023-06-01T04:22:32;10.30;99.90
14016;DHT22;7083;48.854;9.158;2023-06-01T04:24:59;10.30;99.90
14016;DHT22;7083;48.854;9.158;2023-06-01T04:27:25;10.40;99.90
14016;DHT22;7083;48.854;9.158;2023-06-01T04:29:52;10.40;99.90
14016;DHT22;7083;48.854;9.158;2023-06-01T04:32:19;10.50;99.90
14016;DHT22;7083;48.854;9.158;2023-06-01T04:34:47;10.50;99.90
14016;DHT22;7083;48.854;9.158;2023-06-01T04:37:16;10.60;99.90
14016;DHT22;7083;48.854;9.158;2023-06-01T04:39:45;10.70;99.90
14016;DHT22;7083;48.854;9.158;2023-06-01T04:42:14;10.70;99.90
14016;DHT22;7083;48.854;9.158;2023-06-01T04:44:42;10.80;99.90
14016;DHT22;7083;48.854;9.158;2023-06-01T04:47:10;10.90;99.90
14016;DHT22;7083;48.854;9.158;2023-06-01T04:49:40;10.90;99.90
14016;DHT22;7083;48.854;9.158;2023-06-01T04:52:07;11.00;99.90
14016;DHT22;7083;48.854;9.158;2023-06-01T04:54:36;11.10;99.90
14016;DHT22;7083;48.854;9.158;2023-06-01T04:57:04;11.20;99.90
14016;DHT22;7083;48.854;9.158;2023-06-01T04:59:31;11.30;99.90
14016;DHT22;7083;48.854;9.158;2023-06-01T05:01:58;11.50;99.90
14016;DHT22;7083;48.854;9.158;2023-06-01T05:04:25;11.60;99.90
14016;DHT22;7083;48.854;9.158;2023-06-01T05:06:51;11.70;99.90
14016;DHT22;7083;48.854;9.158;2023-06-01T05:09:18;11.80;99.90
14016;DHT22;7083;48.854;9.158;2023-06-01T05:11:46;11.90;99.90
14016;DHT22;7083;48.854;9.158;2023-06-01T05:14:13;12.00;99.90
14016;DHT22;7083;48.854;9.158;2023-06-01T05:16:39;12.20;99.90
14016;DHT22;7083;48.854;9.158;2023-06-01T05:19:06;12.30;99.90
14016;DHT22;7083;48.854;9.158;2023-06-01T05:21:33;12.40;99.90
14016;DHT22;7083;48.854;9.158;2023-06-01T05:23:59;12.50;99.90
14016;DHT22;7083;48.854;9.158;2023-06-01T05:26:26;12.70;99.90
14016;DHT22;7083;48.854;9.158;2023-06-01T05:28:54;12.80;99.90
14016;DHT22;7083;48.854;9.158;2023-06-01T05:31:21;12.90;99.90
14016;DHT22;7083;48.854;9.158;2023-06-01T05:33:47;13.10;99.90
14016;DHT22;7083;48.854;9.158;2023-06-01T05:36:14;13.20;99.90
14016;DHT22;7083;48.854;9.158;2023-06-01T05:38:41;13.30;99.90
14016;DHT22;7083;48.854;9.158;2023-06-01T05:41:08;13.40;99.90
14016;DHT22;7083;48.854;9.158;2023-06-01T05:43:35;13.50;99.90
14016;DHT22;7083;48.854;9.158;2023-06-01T05:46:03;13.60;99.90
14016;DHT22;7083;48.854;9.158;2023-06-01T05:48:32;13.70;99.90
14016;DHT22;7083;48.854;9.158;2023-06-01T05:50:58;13.70;99.90
14016;DHT22;7083;48.854;9.158;2023-06-01T05:53:25;13.80;99.90
14016;DHT22;7083;48.854;9.158;2023-06-01T05:55:53;13.90;99.90
14016;DHT22;7083;48.854;9.158;2023-06-01T05:58:19;13.90;99.90
14016;DHT22;7083;48.854;9.158;2023-06-01T06:00:46;14.00;99.90
14016;DHT22;7083;48.854;9.158;2023-06-01T06:03:14;14.10;99.90
14016;DHT22;7083;48.854;9.158;2023-06-01T06:05:41;14.20;99.90
14016;DHT22;7083;48.854;9.158;2023-06-01T06:08:08;14.20;99.90
14016;DHT22;7083;48.854;9.158;2023-06-01T06:10:35;14.30;99.90
14016;DHT22;7083;48.854;9.158;2023-06-01T06:13:02;14.40;99.90
14016;DHT22;7083;48.854;9.158;2023-06-01T06:15:29;14.50;99.90
14016;DHT22;7083;48.854;9.158;2023-06-01T06:17:56;14.50;99.90
14016;DHT22;7083;48.854;9.158;2023-06-01T06:20:23;14.60;99.90
14016;DHT22;7083;48.854;9.158;2023-06-01T06:22:50;14.70;99.90
14016;DHT22;7083;48.854;9.158;2023-06-01T06:25:17;14.80;99.90
14016;DHT22;7083;48.854;9.158;2023-06-01T06:27:44;14.90;99.90
14016;DHT22;7083;48.854;9.158;2023-06-01T06:30:12;15.00;99.90
14016;DHT22;7083;48.854;9.158;2023-06-01T06:32:39;15.10;99.90
14016;DHT22;7083;48.854;9.158;2023-06-01T06:35:06;15.10;98.30
14016;DHT22;7083;48.854;9.158;2023-06-01T06:37:34;15.20;97.50
14016;DHT22;7083;48.854;9.158;2023-06-01T06:40:00;15.20;97.70
14016;DHT22;7083;48.854;9.158;2023-06-01T06:42:28;15.30;95.90
14016;DHT22;7083;48.854;9.158;2023-06-01T06:44:55;15.50;95.30
14016;DHT22;7083;48.854;9.158;2023-06-01T06:47:22;15.60;95.40
14016;DHT22;7083;48.854;9.158;2023-06-01T06:49:50;15.70;95.60
14016;DHT22;7083;48.854;9.158;2023-06-01T06:52:17;15.80;95.40
14016;DHT22;7083;48.854;9.158;2023-06-01T06:54:45;15.90;94.60
14016;DHT22;7083;48.854;9.158;2023-06-01T06:57:12;16.00;94.60
14016;DHT22;7083;48.854;9.158;2023-06-01T06:59:38;16.00;94.40
14016;DHT22;7083;48.854;9.158;2023-06-01T07:02:05;16.20;93.50
14016;DHT22;7083;48.854;9.158;2023-06-01T07:04:32;16.30;93.10
14016;DHT22;7083;48.854;9.158;2023-06-01T07:06:59;16.40;92.90
14016;DHT22;7083;48.854;9.158;2023-06-01T07:09:29;16.50;91.80
14016;DHT22;7083;48.854;9.158;2023-06-01T07:11:57;16.50;91.30
14016;DHT22;7083;48.854;9.158;2023-06-01T07:14:23;16.70;91.40
14016;DHT22;7083;48.854;9.158;2023-06-01T07:16:50;16.80;91.30
14016;DHT22;7083;48.854;9.158;2023-06-01T07:19:17;16.90;91.90
14016;DHT22;7083;48.854;9.158;2023-06-01T07:21:43;17.00;91.00
14016;DHT22;7083;48.854;9.158;2023-06-01T07:24:10;17.10;90.60
14016;DHT22;7083;48.854;9.158;2023-06-01T07:26:37;17.20;90.40
14016;DHT22;7083;48.854;9.158;2023-06-01T07:29:05;17.30;90.20
14016;DHT22;7083;48.854;9.158;2023-06-01T07:31:32;17.30;89.90
14016;DHT22;7083;48.854;9.158;2023-06-01T07:34:00;17.50;89.80
14016;DHT22;7083;48.854;9.158;2023-06-01T07:36:27;17.60;89.40
14016;DHT22;7083;48.854;9.158;2023-06-01T07:39:02;17.60;90.10
14016;DHT22;7083;48.854;9.158;2023-06-01T07:41:31;17.80;89.00
14016;DHT22;7083;48.854;9.158;2023-06-01T07:43:58;17.90;89.40
14016;DHT22;7083;48.854;9.158;2023-06-01T07:46:26;18.00;90.00
14016;DHT22;7083;48.854;9.158;2023-06-01T07:48:53;18.10;89.40
14016;DHT22;7083;48.854;9.158;2023-06-01T07:51:19;18.10;87.70
14016;DHT22;7083;48.854;9.158;2023-06-01T07:53:46;18.20;87.50
14016;DHT22;7083;48.854;9.158;2023-06-01T07:56:13;18.30;88.20
14016;DHT22;7083;48.854;9.158;2023-06-01T07:58:40;18.40;88.10
14016;DHT22;7083;48.854;9.158;2023-06-01T08:01:07;18.50;89.00
14016;DHT22;7083;48.854;9.158;2023-06-01T08:03:35;18.60;86.90
14016;DHT22;7083;48.854;9.158;2023-06-01T08:06:03;18.70;83.50
14016;DHT22;7083;48.854;9.158;2023-06-01T08:08:30;18.80;84.40
14016;DHT22;7083;48.854;9.158;2023-06-01T08:10:57;18.90;84.70
14016;DHT22;7083;48.854;9.158;2023-06-01T08:13:23;19.00;83.90
14016;DHT22;7083;48.854;9.158;2023-06-01T08:15:51;19.10;84.00
14016;DHT22;7083;48.854;9.158;2023-06-01T08:18:18;19.20;85.10
14016;DHT22;7083;48.854;9.158;2023-06-01T08:20:46;19.30;83.20
14016;DHT22;7083;48.854;9.158;2023-06-01T08:23:13;19.40;83.60
14016;DHT22;7083;48.854;9.158;2023-06-01T08:25:44;19.40;82.00
14016;DHT22;7083;48.854;9.158;2023-06-01T08:28:11;19.50;83.30
14016;DHT22;7083;48.854;9.158;2023-06-01T08:30:38;19.50;82.10
14016;DHT22;7083;48.854;9.158;2023-06-01T08:33:05;19.60;80.70
14016;DHT22;7083;48.854;9.158;2023-06-01T08:35:32;19.70;81.00
14016;DHT22;7083;48.854;9.158;2023-06-01T08:38:01;19.70;79.10
14016;DHT22;7083;48.854;9.158;2023-06-01T08:40:28;19.90;79.10
14016;DHT22;7083;48.854;9.158;2023-06-01T08:42:59;20.00;79.60
14016;DHT22;7083;48.854;9.158;2023-06-01T08:45:26;20.10;77.30
14016;DHT22;7083;48.854;9.158;2023-06-01T08:47:53;20.20;77.50
14016;DHT22;7083;48.854;9.158;2023-06-01T08:50:21;20.30;76.40
14016;DHT22;7083;48.854;9.158;2023-06-01T08:52:49;20.40;75.70
14016;DHT22;7083;48.854;9.158;2023-06-01T08:55:21;20.50;76.60
14016;DHT22;7083;48.854;9.158;2023-06-01T08:57:48;20.60;75.50
14016;DHT22;7083;48.854;9.158;2023-06-01T09:00:15;20.70;74.70
14016;DHT22;7083;48.854;9.158;2023-06-01T09:02:42;20.80;76.40
14016;DHT22;7083;48.854;9.158;2023-06-01T09:05:09;20.90;75.40
14016;DHT22;7083;48.854;9.158;2023-06-01T09:07:37;21.00;73.00
14016;DHT22;7083;48.854;9.158;2023-06-01T09:10:04;21.00;73.40
14016;DHT22;7083;48.854;9.158;2023-06-01T09:12:32;21.10;73.50
14016;DHT22;7083;48.854;9.158;2023-06-01T09:15:10;21.20;76.20
14016;DHT22;7083;48.854;9.158;2023-06-01T09:17:37;21.40;73.80
14016;DHT22;7083;48.854;9.158;2023-06-01T09:20:05;21.40;71.60
14016;DHT22;7083;48.854;9.158;2023-06-01T09:22:39;21.50;72.40
14016;DHT22;7083;48.854;9.158;2023-06-01T09:25:07;21.60;72.60
14016;DHT22;7083;48.854;9.158;2023-06-01T09:27:46;21.80;72.60
14016;DHT22;7083;48.854;9.158;2023-06-01T09:30:15;21.80;71.50
14016;DHT22;7083;48.854;9.158;2023-06-01T09:32:43;21.90;70.70
14016;DHT22;7083;48.854;9.158;2023-06-01T09:35:13;21.80;70.10
14016;DHT22;7083;48.854;9.158;2023-06-01T09:37:53;21.90;72.80
14016;DHT22;7083;48.854;9.158;2023-06-01T09:40:20;21.90;73.50
14016;DHT22;7083;48.854;9.158;2023-06-01T09:42:48;22.00;69.70
14016;DHT22;7083;48.854;9.158;2023-06-01T09:45:18;22.10;70.60
14016;DHT22;7083;48.854;9.158;2023-06-01T09:47:45;22.30;70.00
14016;DHT22;7083;48.854;9.158;2023-06-01T09:50:12;22.30;70.70
14016;DHT22;7083;48.854;9.158;2023-06-01T09:52:58;22.30;71.40
14016;DHT22;7083;48.854;9.158;2023-06-01T09:55:25;22.40;72.40
14016;DHT22;7083;48.854;9.158;2023-06-01T09:58:16;22.50;72.00
14016;DHT22;7083;48.854;9.158;2023-06-01T10:00:43;22.60;72.00
14016;DHT22;7083;48.854;9.158;2023-06-01T10:03:11;22.70;69.90
14016;DHT22;7083;48.854;9.158;2023-06-01T10:05:38;22.70;68.10
14016;DHT22;7083;48.854;9.158;2023-06-01T10:08:05;22.70;68.60
14016;DHT22;7083;48.854;9.158;2023-06-01T10:10:32;22.70;70.30
14016;DHT22;7083;48.854;9.158;2023-06-01T10:13:00;22.90;71.20
14016;DHT22;7083;48.854;9.158;2023-06-01T10:15:27;23.10;67.70
14016;DHT22;7083;48.854;9.158;2023-06-01T10:17:54;23.00;68.20
14016;DHT22;7083;48.854;9.158;2023-06-01T10:20:21;23.20;68.90
14016;DHT22;7083;48.854;9.158;2023-06-01T10:22:48;23.20;68.60
14016;DHT22;7083;48.854;9.158;2023-06-01T10:25:18;23.20;70.60
14016;DHT22;7083;48.854;9.158;2023-06-01T10:27:54;23.30;70.50
14016;DHT22;7083;48.854;9.158;2023-06-01T10:30:24;23.40;67.30
14016;DHT22;7083;48.854;9.158;2023-06-01T10:32:51;23.40;69.40
14016;DHT22;7083;48.854;9.158;2023-06-01T10:38:28;23.70;65.20
14016;DHT22;7083;48.854;9.158;2023-06-01T10:43:55;23.80;65.50
14016;DHT22;7083;48.854;9.158;2023-06-01T10:46:38;23.80;67.20
14016;DHT22;7083;48.854;9.158;2023-06-01T10:49:06;23.80;67.30
14016;DHT22;7083;48.854;9.158;2023-06-01T10:51:32;23.90;64.80
14016;DHT22;7083;48.854;9.158;2023-06-01T10:54:25;24.00;65.70
14016;DHT22;7083;48.854;9.158;2023-06-01T10:57:21;24.10;64.70
14016;DHT22;7083;48.854;9.158;2023-06-01T11:00:17;24.10;64.70
14016;DHT22;7083;48.854;9.158;2023-06-01T11:02:48;24.30;65.40
14016;DHT22;7083;48.854;9.158;2023-06-01T11:05:35;24.30;62.30
14016;DHT22;7083;48.854;9.158;2023-06-01T11:08:02;24.40;59.50
14016;DHT22;7083;48.854;9.158;2023-06-01T11:10:55;24.50;59.60
14016;DHT22;7083;48.854;9.158;2023-06-01T11:13:24;24.60;60.90
14016;DHT22;7083;48.854;9.158;2023-06-01T11:16:27;24.70;59.80
14016;DHT22;7083;48.854;9.158;2023-06-01T11:18:57;24.80;61.10
14016;DHT22;7083;48.854;9.158;2023-06-01T11:21:29;24.80;60.80
14016;DHT22;7083;48.854;9.158;2023-06-01T11:23:58;24.90;61.10
14016;DHT22;7083;48.854;9.158;2023-06-01T11:26:29;25.10;62.10
14016;DHT22;7083;48.854;9.158;2023-06-01T11:29:08;25.30;62.00
14016;DHT22;7083;48.854;9.158;2023-06-01T11:31:36;25.50;61.60
14016;DHT22;7083;48.854;9.158;2023-06-01T11:34:04;25.70;61.70
14016;DHT22;7083;48.854;9.158;2023-06-01T11:36:36;25.80;59.80
14016;DHT22;7083;48.854;9.158;2023-06-01T11:39:03;25.90;59.00
14016;DHT22;7083;48.854;9.158;2023-06-01T11:41:33;26.00;59.10
14016;DHT22;7083;48.854;9.158;2023-06-01T11:44:00;26.20;56.70
14016;DHT22;7083;48.854;9.158;2023-06-01T11:46:27;26.30;54.40
14016;DHT22;7083;48.854;9.158;2023-06-01T11:49:01;26.40;55.90
14016;DHT22;7083;48.854;9.158;2023-06-01T11:51:32;26.60;53.00
14016;DHT22;7083;48.854;9.158;2023-06-01T11:54:00;26.70;51.60
14016;DHT22;7083;48.854;9.158;2023-06-01T11:56:29;26.70;53.30
14016;DHT22;7083;48.854;9.158;2023-06-01T11:58:57;26.90;52.50
14016;DHT22;7083;48.854;9.158;2023-06-01T12:01:25;27.10;56.10
14016;DHT22;7083;48.854;9.158;2023-06-01T12:03:52;27.40;58.50
14016;DHT22;7083;48.854;9.158;2023-06-01T12:06:20;27.70;58.20
14016;DHT22;7083;48.854;9.158;2023-06-01T12:08:49;28.10;58.30
14016;DHT22;7083;48.854;9.158;2023-06-01T12:11:18;28.20;57.10
14016;DHT22;7083;48.854;9.158;2023-06-01T12:13:45;28.50;57.40
14016;DHT22;7083;48.854;9.158;2023-06-01T12:16:13;28.80;57.90
14016;DHT22;7083;48.854;9.158;2023-06-01T12:18:40;29.10;55.20
14016;DHT22;7083;48.854;9.158;2023-06-01T12:21:10;29.00;55.40
14016;DHT22;7083;48.854;9.158;2023-06-01T12:23:37;29.10;54.90
14016;DHT22;7083;48.854;9.158;2023-06-01T12:26:05;29.30;53.40
14016;DHT22;7083;48.854;9.158;2023-06-01T12:28:47;29.30;54.00
14016;DHT22;7083;48.854;9.158;2023-06-01T12:31:15;29.60;51.60
14016;DHT22;7083;48.854;9.158;2023-06-01T12:33:43;29.60;51.60
14016;DHT22;7083;48.854;9.158;2023-06-01T12:36:11;29.40;53.30
14016;DHT22;7083;48.854;9.158;2023-06-01T12:38:49;29.60;54.20
14016;DHT22;7083;48.854;9.158;2023-06-01T12:41:18;29.80;51.70
14016;DHT22;7083;48.854;9.158;2023-06-01T12:43:47;30.10;54.60
14016;DHT22;7083;48.854;9.158;2023-06-01T12:51:13;30.40;53.10
14016;DHT22;7083;48.854;9.158;2023-06-01T12:56:09;32.10;51.80
14016;DHT22;7083;48.854;9.158;2023-06-01T12:58:37;33.10;47.40
14016;DHT22;7083;48.854;9.158;2023-06-01T13:23:11;33.80;47.50
14016;DHT22;7083;48.854;9.158;2023-06-01T13:25:38;38.90;40.50
14016;DHT22;7083;48.854;9.158;2023-06-01T13:28:05;39.10;40.40
14016;DHT22;7083;48.854;9.158;2023-06-01T13:30:33;39.50;35.80
14016;DHT22;7083;48.854;9.158;2023-06-01T13:33:02;39.30;38.10
14016;DHT22;7083;48.854;9.158;2023-06-01T13:35:28;39.20;39.50
14016;DHT22;7083;48.854;9.158;2023-06-01T13:37:55;39.40;37.70
14016;DHT22;7083;48.854;9.158;2023-06-01T13:40:22;39.30;38.50
14016;DHT22;7083;48.854;9.158;2023-06-01T13:42:49;39.20;39.10
14016;DHT22;7083;48.854;9.158;2023-06-01T13:45:16;39.70;36.60
14016;DHT22;7083;48.854;9.158;2023-06-01T13:47:43;40.10;35.40
14016;DHT22;7083;48.854;9.158;2023-06-01T13:50:12;39.60;37.80
14016;DHT22;7083;48.854;9.158;2023-06-01T13:52:39;39.40;37.10
14016;DHT22;7083;48.854;9.158;2023-06-01T13:55:07;39.60;37.60
14016;DHT22;7083;48.854;9.158;2023-06-01T13:57:34;39.80;39.80
14016;DHT22;7083;48.854;9.158;2023-06-01T14:07:25;40.00;37.10
14016;DHT22;7083;48.854;9.158;2023-06-01T14:09:51;41.90;34.80
14016;DHT22;7083;48.854;9.158;2023-06-01T14:14:45;42.00;37.50
14016;DHT22;7083;48.854;9.158;2023-06-01T14:17:12;42.60;37.20
14016;DHT22;7083;48.854;9.158;2023-06-01T14:19:38;43.30;31.80
14016;DHT22;7083;48.854;9.158;2023-06-01T14:22:05;43.30;35.00
14016;DHT22;7083;48.854;9.158;2023-06-01T14:24:33;43.40;31.90
14016;DHT22;7083;48.854;9.158;2023-06-01T14:27:00;43.70;32.20
14016;DHT22;7083;48.854;9.158;2023-06-01T14:29:27;44.00;32.40
14016;DHT22;7083;48.854;9.158;2023-06-01T14:31:53;43.70;35.20
14016;DHT22;7083;48.854;9.158;2023-06-01T14:34:20;43.80;31.90
14016;DHT22;7083;48.854;9.158;2023-06-01T14:36:47;43.80;32.50
14016;DHT22;7083;48.854;9.158;2023-06-01T14:39:13;44.00;35.30
14016;DHT22;7083;48.854;9.158;2023-06-01T14:41:42;44.00;32.40
14016;DHT22;7083;48.854;9.158;2023-06-01T14:44:08;44.00;34.10
14016;DHT22;7083;48.854;9.158;2023-06-01T14:46:35;44.00;32.40
14016;DHT22;7083;48.854;9.158;2023-06-01T14:49:02;44.10;33.30
14016;DHT22;7083;48.854;9.158;2023-06-01T14:51:29;44.20;33.50
14016;DHT22;7083;48.854;9.158;2023-06-01T14:53:57;44.10;36.30
14016;DHT22;7083;48.854;9.158;2023-06-01T14:56:24;44.30;32.30
14016;DHT22;7083;48.854;9.158;2023-06-01T14:58:52;44.40;33.90
14016;DHT22;7083;48.854;9.158;2023-06-01T15:01:19;44.40;35.30
14016;DHT22;7083;48.854;9.158;2023-06-01T15:03:46;44.40;32.50
14016;DHT22;7083;48.854;9.158;2023-06-01T15:06:13;44.40;35.10
14016;DHT22;7083;48.854;9.158;2023-06-01T15:08:39;44.60;33.00
14016;DHT22;7083;48.854;9.158;2023-06-01T15:11:06;44.90;32.50
14016;DHT22;7083;48.854;9.158;2023-06-01T15:13:33;45.00;32.90
14016;DHT22;7083;48.854;9.158;2023-06-01T15:16:01;45.10;32.50
14016;DHT22;7083;48.854;9.158;2023-06-01T15:18:27;45.10;34.50
14016;DHT22;7083;48.854;9.158;2023-06-01T15:20:54;44.80;33.60
14016;DHT22;7083;48.854;9.158;2023-06-01T15:23:22;44.90;31.00
14016;DHT22;7083;48.854;9.158;2023-06-01T15:25:48;45.10;30.40
14016;DHT22;7083;48.854;9.158;2023-06-01T15:28:15;44.90;33.40
14016;DHT22;7083;48.854;9.158;2023-06-01T15:30:42;44.80;34.10
14016;DHT22;7083;48.854;9.158;2023-06-01T15:33:10;45.00;32.60
14016;DHT22;7083;48.854;9.158;2023-06-01T15:35:39;45.00;30.50
14016;DHT22;7083;48.854;9.158;2023-06-01T15:38:05;45.00;33.70
14016;DHT22;7083;48.854;9.158;2023-06-01T15:40:32;45.10;31.90
14016;DHT22;7083;48.854;9.158;2023-06-01T15:42:58;45.20;34.90
14016;DHT22;7083;48.854;9.158;2023-06-01T15:45:25;45.40;32.10
14016;DHT22;7083;48.854;9.158;2023-06-01T15:47:52;45.50;31.60
14016;DHT22;7083;48.854;9.158;2023-06-01T15:50:20;45.60;30.00
14016;DHT22;7083;48.854;9.158;2023-06-01T15:52:47;45.60;31.00
14016;DHT22;7083;48.854;9.158;2023-06-01T15:55:13;45.40;31.90
14016;DHT22;7083;48.854;9.158;2023-06-01T15:57:40;45.50;32.30
14016;DHT22;7083;48.854;9.158;2023-06-01T16:00:07;45.40;33.10
14016;DHT22;7083;48.854;9.158;2023-06-01T16:02:34;45.30;33.10
14016;DHT22;7083;48.854;9.158;2023-06-01T16:05:04;45.20;33.50
14016;DHT22;7083;48.854;9.158;2023-06-01T16:07:32;45.50;32.50
14016;DHT22;7083;48.854;9.158;2023-06-01T16:09:59;45.40;35.20
14016;DHT22;7083;48.854;9.158;2023-06-01T16:12:26;45.40;31.20
14016;DHT22;7083;48.854;9.158;2023-06-01T16:14:52;45.30;34.30
14016;DHT22;7083;48.854;9.158;2023-06-01T16:17:19;45.30;30.80
14016;DHT22;7083;48.854;9.158;2023-06-01T16:19:45;44.90;30.40
14016;DHT22;7083;48.854;9.158;2023-06-01T16:22:12;44.70;32.60
14016;DHT22;7083;48.854;9.158;2023-06-01T16:24:40;44.80;32.40
14016;DHT22;7083;48.854;9.158;2023-06-01T16:27:07;44.60;33.20
14016;DHT22;7083;48.854;9.158;2023-06-01T16:29:34;44.60;33.70
14016;DHT22;7083;48.854;9.158;2023-06-01T16:32:01;44.60;32.00
14016;DHT22;7083;48.854;9.158;2023-06-01T16:34:27;44.60;33.40
14016;DHT22;7083;48.854;9.158;2023-06-01T16:36:54;44.30;33.40
14016;DHT22;7083;48.854;9.158;2023-06-01T16:39:21;44.00;34.60